Terminal Aerodrome Forecast
Issued by NWS Upton, NY

Home | Current Version | Previous Version | Text Only | Print | Product List | Glossary On
Versions: 1 2 3 4 5 6 7 8 9 10 11 12 13 14 15 16 17 18 19 20 21 22 23 24 25 26
049
FTUS41 KOKX 042322
TAFBDR
TAF
KBDR 042322Z 0500/0524 VRB03KT P6SM BKN150 BKN250
     FM050800 09005KT 6SM -RASN SCT030 OVC060
     FM051000 11006KT 4SM -RA SCT012 BKN020
      TEMPO 0511/0513 BKN012
     FM051300 17007KT 4SM -RA BKN010 OVC020
     FM051600 21008KT 6SM BR BKN015 BKN030
     FM051900 27010KT P6SM SCT030 SCT250
     FM052200 30009KT P6SM SCT250=

USA.gov is the U.S. government's official web portal to all federal, state and local government web resources and services.